sensor_id;sensor_type;location;lat;lon;timestamp;P1;durP1;ratioP1;P2;durP2;ratioP2
20986;SDS011;10652;50.306;8.570;2022-09-12T00:03:45;6.50;;;5.00;;
20986;SDS011;10652;50.306;8.570;2022-09-12T00:07:48;6.25;;;4.65;;
20986;SDS011;10652;50.306;8.570;2022-09-12T00:11:50;6.53;;;5.13;;
20986;SDS011;10652;50.306;8.570;2022-09-12T00:15:52;6.43;;;4.88;;
20986;SDS011;10652;50.306;8.570;2022-09-12T00:19:54;6.45;;;5.25;;
20986;SDS011;10652;50.306;8.570;2022-09-12T00:23:56;5.70;;;4.78;;
20986;SDS011;10652;50.306;8.570;2022-09-12T00:27:59;7.43;;;5.03;;
20986;SDS011;10652;50.306;8.570;2022-09-12T00:32:01;6.85;;;4.85;;
20986;SDS011;10652;50.306;8.570;2022-09-12T00:36:04;7.80;;;5.55;;
20986;SDS011;10652;50.306;8.570;2022-09-12T00:40:15;5.55;;;4.95;;
20986;SDS011;10652;50.306;8.570;2022-09-12T00:48:25;5.65;;;4.75;;
20986;SDS011;10652;50.306;8.570;2022-09-12T00:52:36;5.78;;;4.50;;
20986;SDS011;10652;50.306;8.570;2022-09-12T00:56:44;6.03;;;4.53;;
20986;SDS011;10652;50.306;8.570;2022-09-12T01:00:49;4.85;;;4.18;;
20986;SDS011;10652;50.306;8.570;2022-09-12T01:04:52;5.95;;;4.40;;
20986;SDS011;10652;50.306;8.570;2022-09-12T01:08:54;5.75;;;4.70;;
20986;SDS011;10652;50.306;8.570;2022-09-12T01:12:57;4.43;;;3.95;;
20986;SDS011;10652;50.306;8.570;2022-09-12T01:17:00;5.05;;;3.83;;
20986;SDS011;10652;50.306;8.570;2022-09-12T01:34:25;6.90;;;4.72;;
20986;SDS011;10652;50.306;8.570;2022-09-12T01:38:35;5.00;;;4.10;;
20986;SDS011;10652;50.306;8.570;2022-09-12T01:42:51;5.82;;;4.35;;
20986;SDS011;10652;50.306;8.570;2022-09-12T01:47:00;5.03;;;4.30;;
20986;SDS011;10652;50.306;8.570;2022-09-12T01:51:12;4.47;;;3.90;;
20986;SDS011;10652;50.306;8.570;2022-09-12T01:59:32;4.45;;;3.80;;
20986;SDS011;10652;50.306;8.570;2022-09-12T02:03:40;5.30;;;4.55;;
20986;SDS011;10652;50.306;8.570;2022-09-12T02:07:48;4.40;;;4.00;;
20986;SDS011;10652;50.306;8.570;2022-09-12T02:11:56;4.68;;;3.60;;
20986;SDS011;10652;50.306;8.570;2022-09-12T02:16:19;3.90;;;3.30;;
20986;SDS011;10652;50.306;8.570;2022-09-12T02:20:29;4.07;;;3.67;;
20986;SDS011;10652;50.306;8.570;2022-09-12T02:24:50;3.85;;;3.45;;
20986;SDS011;10652;50.306;8.570;2022-09-12T02:28:55;3.88;;;3.47;;
20986;SDS011;10652;50.306;8.570;2022-09-12T02:32:59;3.92;;;3.55;;
20986;SDS011;10652;50.306;8.570;2022-09-12T02:41:30;3.65;;;3.35;;
20986;SDS011;10652;50.306;8.570;2022-09-12T02:45:33;3.70;;;3.15;;
20986;SDS011;10652;50.306;8.570;2022-09-12T02:49:36;3.60;;;2.72;;
20986;SDS011;10652;50.306;8.570;2022-09-12T02:53:38;3.10;;;2.80;;
20986;SDS011;10652;50.306;8.570;2022-09-12T02:57:42;3.85;;;2.80;;
20986;SDS011;10652;50.306;8.570;2022-09-12T03:06:02;3.38;;;2.95;;
20986;SDS011;10652;50.306;8.570;2022-09-12T03:10:39;3.10;;;2.80;;
20986;SDS011;10652;50.306;8.570;2022-09-12T03:15:04;2.75;;;2.40;;
20986;SDS011;10652;50.306;8.570;2022-09-12T03:19:15;3.65;;;2.95;;
20986;SDS011;10652;50.306;8.570;2022-09-12T03:27:38;2.88;;;2.65;;
20986;SDS011;10652;50.306;8.570;2022-09-12T03:31:50;4.57;;;3.20;;
20986;SDS011;10652;50.306;8.570;2022-09-12T03:35:54;3.58;;;2.88;;
20986;SDS011;10652;50.306;8.570;2022-09-12T03:39:57;3.83;;;2.85;;
20986;SDS011;10652;50.306;8.570;2022-09-12T03:43:59;3.47;;;3.17;;
20986;SDS011;10652;50.306;8.570;2022-09-12T03:48:01;3.50;;;3.08;;
20986;SDS011;10652;50.306;8.570;2022-09-12T03:52:04;5.07;;;3.10;;
20986;SDS011;10652;50.306;8.570;2022-09-12T03:56:07;3.08;;;2.78;;
20986;SDS011;10652;50.306;8.570;2022-09-12T04:00:10;3.47;;;3.08;;
20986;SDS011;10652;50.306;8.570;2022-09-12T04:04:19;7.90;;;4.85;;
20986;SDS011;10652;50.306;8.570;2022-09-12T04:08:21;16.67;;;5.93;;
20986;SDS011;10652;50.306;8.570;2022-09-12T04:12:23;9.07;;;5.97;;
20986;SDS011;10652;50.306;8.570;2022-09-12T04:16:25;5.80;;;5.20;;
20986;SDS011;10652;50.306;8.570;2022-09-12T04:20:28;7.25;;;5.22;;
20986;SDS011;10652;50.306;8.570;2022-09-12T04:24:30;6.57;;;4.47;;
20986;SDS011;10652;50.306;8.570;2022-09-12T04:28:33;6.43;;;5.00;;
20986;SDS011;10652;50.306;8.570;2022-09-12T04:32:36;5.97;;;5.10;;
20986;SDS011;10652;50.306;8.570;2022-09-12T04:36:38;5.93;;;4.18;;
20986;SDS011;10652;50.306;8.570;2022-09-12T04:40:40;4.45;;;3.90;;
20986;SDS011;10652;50.306;8.570;2022-09-12T04:44:42;6.70;;;5.32;;
20986;SDS011;10652;50.306;8.570;2022-09-12T04:48:44;8.40;;;4.70;;
20986;SDS011;10652;50.306;8.570;2022-09-12T04:52:48;7.38;;;5.00;;
20986;SDS011;10652;50.306;8.570;2022-09-12T04:56:54;7.73;;;5.20;;
20986;SDS011;10652;50.306;8.570;2022-09-12T05:01:02;10.20;;;6.40;;
20986;SDS011;10652;50.306;8.570;2022-09-12T05:05:08;10.98;;;6.70;;
20986;SDS011;10652;50.306;8.570;2022-09-12T05:09:11;8.73;;;6.32;;
20986;SDS011;10652;50.306;8.570;2022-09-12T05:13:14;10.57;;;5.45;;
20986;SDS011;10652;50.306;8.570;2022-09-12T05:17:16;17.23;;;6.65;;
20986;SDS011;10652;50.306;8.570;2022-09-12T05:21:19;36.58;;;7.32;;
20986;SDS011;10652;50.306;8.570;2022-09-12T05:25:24;17.42;;;7.32;;
20986;SDS011;10652;50.306;8.570;2022-09-12T05:29:26;9.63;;;6.60;;
20986;SDS011;10652;50.306;8.570;2022-09-12T05:33:28;16.35;;;7.47;;
20986;SDS011;10652;50.306;8.570;2022-09-12T05:37:31;12.20;;;7.35;;
20986;SDS011;10652;50.306;8.570;2022-09-12T05:41:34;10.48;;;6.93;;
20986;SDS011;10652;50.306;8.570;2022-09-12T05:45:39;11.13;;;6.88;;
20986;SDS011;10652;50.306;8.570;2022-09-12T05:49:42;9.27;;;6.80;;
20986;SDS011;10652;50.306;8.570;2022-09-12T05:53:47;10.57;;;7.20;;
20986;SDS011;10652;50.306;8.570;2022-09-12T05:57:50;9.25;;;6.43;;
20986;SDS011;10652;50.306;8.570;2022-09-12T06:01:52;10.23;;;6.43;;
20986;SDS011;10652;50.306;8.570;2022-09-12T06:05:54;8.82;;;6.57;;
20986;SDS011;10652;50.306;8.570;2022-09-12T06:09:56;9.88;;;7.30;;
20986;SDS011;10652;50.306;8.570;2022-09-12T06:13:59;10.73;;;6.60;;
20986;SDS011;10652;50.306;8.570;2022-09-12T06:18:02;9.07;;;6.53;;
20986;SDS011;10652;50.306;8.570;2022-09-12T06:22:04;6.78;;;5.97;;
20986;SDS011;10652;50.306;8.570;2022-09-12T06:26:07;7.45;;;6.47;;
20986;SDS011;10652;50.306;8.570;2022-09-12T06:30:10;10.32;;;5.97;;
20986;SDS011;10652;50.306;8.570;2022-09-12T06:34:13;7.05;;;5.88;;
20986;SDS011;10652;50.306;8.570;2022-09-12T06:38:16;7.07;;;5.90;;
20986;SDS011;10652;50.306;8.570;2022-09-12T06:42:19;8.88;;;5.93;;
20986;SDS011;10652;50.306;8.570;2022-09-12T06:46:30;8.73;;;6.25;;
20986;SDS011;10652;50.306;8.570;2022-09-12T06:50:32;7.55;;;6.35;;
20986;SDS011;10652;50.306;8.570;2022-09-12T06:54:34;8.13;;;6.47;;
20986;SDS011;10652;50.306;8.570;2022-09-12T06:58:36;7.85;;;6.32;;
20986;SDS011;10652;50.306;8.570;2022-09-12T07:02:38;9.40;;;6.95;;
20986;SDS011;10652;50.306;8.570;2022-09-12T07:06:41;8.43;;;7.15;;
20986;SDS011;10652;50.306;8.570;2022-09-12T07:10:45;11.65;;;7.30;;
20986;SDS011;10652;50.306;8.570;2022-09-12T07:14:47;9.45;;;7.35;;
20986;SDS011;10652;50.306;8.570;2022-09-12T07:18:50;9.10;;;7.32;;
20986;SDS011;10652;50.306;8.570;2022-09-12T07:22:53;9.07;;;6.97;;
20986;SDS011;10652;50.306;8.570;2022-09-12T07:26:55;12.07;;;8.27;;
20986;SDS011;10652;50.306;8.570;2022-09-12T07:30:57;9.48;;;8.18;;
20986;SDS011;10652;50.306;8.570;2022-09-12T07:35:05;8.52;;;7.25;;
20986;SDS011;10652;50.306;8.570;2022-09-12T07:39:07;14.98;;;8.10;;
20986;SDS011;10652;50.306;8.570;2022-09-12T07:43:10;10.30;;;8.00;;
20986;SDS011;10652;50.306;8.570;2022-09-12T07:47:12;9.95;;;7.85;;
20986;SDS011;10652;50.306;8.570;2022-09-12T07:51:14;9.77;;;7.55;;
20986;SDS011;10652;50.306;8.570;2022-09-12T07:55:16;8.65;;;7.07;;
20986;SDS011;10652;50.306;8.570;2022-09-12T07:59:18;7.90;;;7.05;;
20986;SDS011;10652;50.306;8.570;2022-09-12T08:03:41;8.60;;;6.38;;
20986;SDS011;10652;50.306;8.570;2022-09-12T08:07:44;8.38;;;5.97;;
20986;SDS011;10652;50.306;8.570;2022-09-12T08:11:46;8.27;;;6.43;;
20986;SDS011;10652;50.306;8.570;2022-09-12T08:15:48;6.70;;;6.00;;
20986;SDS011;10652;50.306;8.570;2022-09-12T08:19:50;7.82;;;5.78;;
20986;SDS011;10652;50.306;8.570;2022-09-12T08:23:57;7.22;;;5.80;;
20986;SDS011;10652;50.306;8.570;2022-09-12T08:28:04;5.95;;;5.35;;
20986;SDS011;10652;50.306;8.570;2022-09-12T08:32:06;7.13;;;5.45;;
20986;SDS011;10652;50.306;8.570;2022-09-12T08:36:16;6.32;;;5.22;;
20986;SDS011;10652;50.306;8.570;2022-09-12T08:40:23;6.28;;;5.13;;
20986;SDS011;10652;50.306;8.570;2022-09-12T08:44:38;8.20;;;5.80;;
20986;SDS011;10652;50.306;8.570;2022-09-12T08:48:45;7.28;;;5.78;;
20986;SDS011;10652;50.306;8.570;2022-09-12T08:56:57;6.57;;;5.78;;
20986;SDS011;10652;50.306;8.570;2022-09-12T09:05:18;8.43;;;5.03;;
20986;SDS011;10652;50.306;8.570;2022-09-12T09:14:00;7.13;;;4.82;;
20986;SDS011;10652;50.306;8.570;2022-09-12T09:18:24;5.13;;;4.57;;
20986;SDS011;10652;50.306;8.570;2022-09-12T09:30:42;6.20;;;4.82;;
20986;SDS011;10652;50.306;8.570;2022-09-12T09:34:45;5.53;;;5.03;;
20986;SDS011;10652;50.306;8.570;2022-09-12T09:38:49;6.68;;;5.00;;
20986;SDS011;10652;50.306;8.570;2022-09-12T09:43:16;6.03;;;5.43;;
20986;SDS011;10652;50.306;8.570;2022-09-12T09:47:23;6.43;;;5.07;;
20986;SDS011;10652;50.306;8.570;2022-09-12T09:51:27;6.78;;;5.50;;
20986;SDS011;10652;50.306;8.570;2022-09-12T09:55:37;9.13;;;5.45;;
20986;SDS011;10652;50.306;8.570;2022-09-12T09:59:41;6.82;;;5.35;;
20986;SDS011;10652;50.306;8.570;2022-09-12T10:03:47;7.18;;;5.28;;
20986;SDS011;10652;50.306;8.570;2022-09-12T10:07:54;6.90;;;5.60;;
20986;SDS011;10652;50.306;8.570;2022-09-12T10:11:56;8.02;;;6.03;;
20986;SDS011;10652;50.306;8.570;2022-09-12T10:16:02;9.13;;;4.90;;
20986;SDS011;10652;50.306;8.570;2022-09-12T10:24:39;6.80;;;5.07;;
20986;SDS011;10652;50.306;8.570;2022-09-12T10:28:45;6.40;;;4.90;;
20986;SDS011;10652;50.306;8.570;2022-09-12T10:33:06;6.75;;;5.00;;
20986;SDS011;10652;50.306;8.570;2022-09-12T10:37:22;6.28;;;5.15;;
20986;SDS011;10652;50.306;8.570;2022-09-12T10:41:35;7.63;;;5.03;;
20986;SDS011;10652;50.306;8.570;2022-09-12T10:45:39;5.20;;;4.70;;
20986;SDS011;10652;50.306;8.570;2022-09-12T10:49:42;7.07;;;4.40;;
20986;SDS011;10652;50.306;8.570;2022-09-12T10:53:44;7.85;;;4.90;;
20986;SDS011;10652;50.306;8.570;2022-09-12T10:57:53;5.03;;;4.20;;
20986;SDS011;10652;50.306;8.570;2022-09-12T11:06:31;5.00;;;3.80;;
20986;SDS011;10652;50.306;8.570;2022-09-12T11:28:22;6.20;;;3.90;;
20986;SDS011;10652;50.306;8.570;2022-09-12T11:41:04;4.82;;;4.07;;
20986;SDS011;10652;50.306;8.570;2022-09-12T11:45:16;5.10;;;3.78;;
20986;SDS011;10652;50.306;8.570;2022-09-12T11:53:58;4.87;;;4.03;;
20986;SDS011;10652;50.306;8.570;2022-09-12T11:58:06;4.40;;;3.67;;
20986;SDS011;10652;50.306;8.570;2022-09-12T12:02:11;5.00;;;3.50;;
20986;SDS011;10652;50.306;8.570;2022-09-12T12:10:34;3.75;;;3.30;;
20986;SDS011;10652;50.306;8.570;2022-09-12T12:14:43;3.93;;;3.40;;
20986;SDS011;10652;50.306;8.570;2022-09-12T12:18:55;6.03;;;3.67;;
20986;SDS011;10652;50.306;8.570;2022-09-12T12:22:59;5.05;;;3.45;;
20986;SDS011;10652;50.306;8.570;2022-09-12T12:27:02;3.35;;;3.05;;
20986;SDS011;10652;50.306;8.570;2022-09-12T12:31:06;3.90;;;3.20;;
20986;SDS011;10652;50.306;8.570;2022-09-12T12:35:35;4.50;;;4.03;;
20986;SDS011;10652;50.306;8.570;2022-09-12T12:47:55;5.13;;;3.20;;
20986;SDS011;10652;50.306;8.570;2022-09-12T12:52:01;4.13;;;3.10;;
20986;SDS011;10652;50.306;8.570;2022-09-12T12:56:03;4.60;;;3.28;;
20986;SDS011;10652;50.306;8.570;2022-09-12T13:00:07;3.10;;;2.70;;
20986;SDS011;10652;50.306;8.570;2022-09-12T13:04:30;3.63;;;3.05;;
20986;SDS011;10652;50.306;8.570;2022-09-12T13:08:34;3.25;;;2.95;;
20986;SDS011;10652;50.306;8.570;2022-09-12T13:12:43;4.83;;;3.40;;
20986;SDS011;10652;50.306;8.570;2022-09-12T13:16:55;5.22;;;3.65;;
20986;SDS011;10652;50.306;8.570;2022-09-12T13:21:08;4.85;;;4.13;;
20986;SDS011;10652;50.306;8.570;2022-09-12T13:25:29;4.72;;;3.78;;
20986;SDS011;10652;50.306;8.570;2022-09-12T13:29:36;5.55;;;3.15;;
20986;SDS011;10652;50.306;8.570;2022-09-12T13:33:40;4.72;;;3.65;;
20986;SDS011;10652;50.306;8.570;2022-09-12T13:37:55;3.38;;;3.08;;
20986;SDS011;10652;50.306;8.570;2022-09-12T13:46:31;3.85;;;3.40;;
20986;SDS011;10652;50.306;8.570;2022-09-12T13:50:39;5.07;;;3.45;;
20986;SDS011;10652;50.306;8.570;2022-09-12T13:54:47;4.00;;;3.58;;
20986;SDS011;10652;50.306;8.570;2022-09-12T13:58:59;5.20;;;3.80;;
20986;SDS011;10652;50.306;8.570;2022-09-12T14:03:11;3.58;;;3.20;;
20986;SDS011;10652;50.306;8.570;2022-09-12T14:07:47;7.22;;;3.30;;
20986;SDS011;10652;50.306;8.570;2022-09-12T14:11:55;5.63;;;3.60;;
20986;SDS011;10652;50.306;8.570;2022-09-12T14:15:58;4.07;;;3.10;;
20986;SDS011;10652;50.306;8.570;2022-09-12T14:20:02;5.07;;;3.40;;
20986;SDS011;10652;50.306;8.570;2022-09-12T14:24:08;3.63;;;3.33;;
20986;SDS011;10652;50.306;8.570;2022-09-12T14:28:13;4.78;;;3.50;;
20986;SDS011;10652;50.306;8.570;2022-09-12T14:32:24;3.60;;;3.30;;
20986;SDS011;10652;50.306;8.570;2022-09-12T14:36:31;4.75;;;3.10;;
20986;SDS011;10652;50.306;8.570;2022-09-12T14:40:43;6.47;;;3.67;;
20986;SDS011;10652;50.306;8.570;2022-09-12T14:44:54;5.40;;;3.40;;
20986;SDS011;10652;50.306;8.570;2022-09-12T14:57:39;3.50;;;3.00;;
20986;SDS011;10652;50.306;8.570;2022-09-12T15:01:41;3.33;;;2.80;;
20986;SDS011;10652;50.306;8.570;2022-09-12T15:05:47;2.95;;;2.60;;
20986;SDS011;10652;50.306;8.570;2022-09-12T15:09:50;3.13;;;2.75;;
20986;SDS011;10652;50.306;8.570;2022-09-12T15:13:53;2.80;;;2.47;;
20986;SDS011;10652;50.306;8.570;2022-09-12T15:17:55;2.90;;;2.70;;
20986;SDS011;10652;50.306;8.570;2022-09-12T15:21:57;3.20;;;2.88;;
20986;SDS011;10652;50.306;8.570;2022-09-12T15:25:59;4.13;;;2.70;;
20986;SDS011;10652;50.306;8.570;2022-09-12T15:30:02;3.33;;;2.50;;
20986;SDS011;10652;50.306;8.570;2022-09-12T15:34:04;3.10;;;2.80;;
20986;SDS011;10652;50.306;8.570;2022-09-12T15:38:06;2.92;;;2.67;;
20986;SDS011;10652;50.306;8.570;2022-09-12T15:42:08;3.95;;;2.88;;
20986;SDS011;10652;50.306;8.570;2022-09-12T15:46:12;2.83;;;2.60;;
20986;SDS011;10652;50.306;8.570;2022-09-12T15:50:15;3.13;;;2.58;;
20986;SDS011;10652;50.306;8.570;2022-09-12T15:54:17;2.75;;;2.47;;
20986;SDS011;10652;50.306;8.570;2022-09-12T15:58:21;3.28;;;2.50;;
20986;SDS011;10652;50.306;8.570;2022-09-12T16:02:23;2.72;;;2.53;;
20986;SDS011;10652;50.306;8.570;2022-09-12T16:06:25;2.63;;;2.42;;
20986;SDS011;10652;50.306;8.570;2022-09-12T16:10:37;3.10;;;2.78;;
20986;SDS011;10652;50.306;8.570;2022-09-12T16:14:39;2.65;;;2.42;;
20986;SDS011;10652;50.306;8.570;2022-09-12T16:18:41;3.17;;;2.58;;
20986;SDS011;10652;50.306;8.570;2022-09-12T16:22:43;3.03;;;2.58;;
20986;SDS011;10652;50.306;8.570;2022-09-12T16:26:45;3.05;;;2.75;;
20986;SDS011;10652;50.306;8.570;2022-09-12T16:30:54;3.90;;;2.90;;
20986;SDS011;10652;50.306;8.570;2022-09-12T16:34:57;3.08;;;2.72;;
20986;SDS011;10652;50.306;8.570;2022-09-12T16:39:00;3.63;;;2.50;;
20986;SDS011;10652;50.306;8.570;2022-09-12T16:43:02;5.03;;;2.80;;
20986;SDS011;10652;50.306;8.570;2022-09-12T16:47:04;2.88;;;2.47;;
20986;SDS011;10652;50.306;8.570;2022-09-12T16:51:06;3.85;;;2.88;;
20986;SDS011;10652;50.306;8.570;2022-09-12T16:55:08;3.22;;;2.70;;
20986;SDS011;10652;50.306;8.570;2022-09-12T16:59:10;3.03;;;2.70;;
20986;SDS011;10652;50.306;8.570;2022-09-12T17:03:16;3.45;;;2.58;;
20986;SDS011;10652;50.306;8.570;2022-09-12T17:07:18;3.63;;;2.97;;
20986;SDS011;10652;50.306;8.570;2022-09-12T17:11:21;5.38;;;2.80;;
20986;SDS011;10652;50.306;8.570;2022-09-12T17:15:25;3.10;;;2.53;;
20986;SDS011;10652;50.306;8.570;2022-09-12T17:19:27;3.72;;;2.97;;
20986;SDS011;10652;50.306;8.570;2022-09-12T17:23:33;3.05;;;2.40;;
20986;SDS011;10652;50.306;8.570;2022-09-12T17:27:35;3.05;;;2.72;;
20986;SDS011;10652;50.306;8.570;2022-09-12T17:31:38;3.38;;;2.85;;
20986;SDS011;10652;50.306;8.570;2022-09-12T17:35:41;2.85;;;2.65;;
20986;SDS011;10652;50.306;8.570;2022-09-12T17:39:43;3.50;;;2.72;;
20986;SDS011;10652;50.306;8.570;2022-09-12T17:43:45;3.63;;;2.80;;
20986;SDS011;10652;50.306;8.570;2022-09-12T17:47:53;4.38;;;3.35;;
20986;SDS011;10652;50.306;8.570;2022-09-12T17:51:55;4.35;;;3.13;;
20986;SDS011;10652;50.306;8.570;2022-09-12T17:56:00;3.33;;;2.97;;
20986;SDS011;10652;50.306;8.570;2022-09-12T18:00:03;3.97;;;3.08;;
20986;SDS011;10652;50.306;8.570;2022-09-12T18:04:12;3.45;;;3.15;;
20986;SDS011;10652;50.306;8.570;2022-09-12T18:08:14;4.82;;;3.78;;
20986;SDS011;10652;50.306;8.570;2022-09-12T18:12:16;3.95;;;3.28;;
20986;SDS011;10652;50.306;8.570;2022-09-12T18:16:19;4.28;;;3.60;;
20986;SDS011;10652;50.306;8.570;2022-09-12T18:20:21;3.67;;;3.20;;
20986;SDS011;10652;50.306;8.570;2022-09-12T18:24:23;4.43;;;3.17;;
20986;SDS011;10652;50.306;8.570;2022-09-12T18:28:27;5.20;;;3.50;;
20986;SDS011;10652;50.306;8.570;2022-09-12T18:32:29;5.22;;;4.07;;
20986;SDS011;10652;50.306;8.570;2022-09-12T18:36:31;3.70;;;3.20;;
20986;SDS011;10652;50.306;8.570;2022-09-12T18:40:33;3.75;;;3.15;;
20986;SDS011;10652;50.306;8.570;2022-09-12T18:44:35;3.90;;;3.50;;
20986;SDS011;10652;50.306;8.570;2022-09-12T18:48:37;5.15;;;3.42;;
20986;SDS011;10652;50.306;8.570;2022-09-12T18:52:39;4.38;;;3.70;;
20986;SDS011;10652;50.306;8.570;2022-09-12T18:56:41;4.57;;;3.78;;
20986;SDS011;10652;50.306;8.570;2022-09-12T19:00:44;4.18;;;3.78;;
20986;SDS011;10652;50.306;8.570;2022-09-12T19:04:49;5.07;;;3.53;;
20986;SDS011;10652;50.306;8.570;2022-09-12T19:08:51;3.40;;;3.10;;
20986;SDS011;10652;50.306;8.570;2022-09-12T19:12:54;4.22;;;3.60;;
20986;SDS011;10652;50.306;8.570;2022-09-12T19:16:56;4.15;;;3.75;;
20986;SDS011;10652;50.306;8.570;2022-09-12T19:20:58;4.60;;;3.22;;
20986;SDS011;10652;50.306;8.570;2022-09-12T19:25:02;4.57;;;3.53;;
20986;SDS011;10652;50.306;8.570;2022-09-12T19:29:04;3.45;;;3.10;;
20986;SDS011;10652;50.306;8.570;2022-09-12T19:33:07;4.20;;;3.17;;
20986;SDS011;10652;50.306;8.570;2022-09-12T19:37:09;4.65;;;3.45;;
20986;SDS011;10652;50.306;8.570;2022-09-12T19:41:12;3.92;;;3.55;;
20986;SDS011;10652;50.306;8.570;2022-09-12T19:45:16;5.25;;;3.80;;
20986;SDS011;10652;50.306;8.570;2022-09-12T19:49:18;4.30;;;3.95;;
20986;SDS011;10652;50.306;8.570;2022-09-12T19:53:20;4.38;;;3.80;;
20986;SDS011;10652;50.306;8.570;2022-09-12T19:57:22;4.40;;;4.00;;
20986;SDS011;10652;50.306;8.570;2022-09-12T20:01:24;4.68;;;3.72;;
20986;SDS011;10652;50.306;8.570;2022-09-12T20:05:31;4.60;;;3.83;;
20986;SDS011;10652;50.306;8.570;2022-09-12T20:09:34;3.97;;;3.55;;
20986;SDS011;10652;50.306;8.570;2022-09-12T20:13:36;4.35;;;3.53;;
20986;SDS011;10652;50.306;8.570;2022-09-12T20:17:38;4.03;;;3.45;;
20986;SDS011;10652;50.306;8.570;2022-09-12T20:21:41;4.13;;;3.70;;
20986;SDS011;10652;50.306;8.570;2022-09-12T20:25:43;6.13;;;4.10;;
20986;SDS011;10652;50.306;8.570;2022-09-12T20:29:45;5.72;;;3.83;;
20986;SDS011;10652;50.306;8.570;2022-09-12T20:33:47;4.43;;;4.03;;
20986;SDS011;10652;50.306;8.570;2022-09-12T20:37:52;4.38;;;3.97;;
20986;SDS011;10652;50.306;8.570;2022-09-12T20:41:54;4.88;;;4.03;;
20986;SDS011;10652;50.306;8.570;2022-09-12T20:45:56;5.85;;;4.38;;
20986;SDS011;10652;50.306;8.570;2022-09-12T20:49:58;4.32;;;3.90;;
20986;SDS011;10652;50.306;8.570;2022-09-12T20:54:02;4.30;;;3.90;;
20986;SDS011;10652;50.306;8.570;2022-09-12T20:58:05;6.88;;;4.53;;
20986;SDS011;10652;50.306;8.570;2022-09-12T21:02:13;5.82;;;4.15;;
20986;SDS011;10652;50.306;8.570;2022-09-12T21:06:17;4.53;;;4.05;;
20986;SDS011;10652;50.306;8.570;2022-09-12T21:10:20;5.85;;;3.70;;
20986;SDS011;10652;50.306;8.570;2022-09-12T21:14:22;4.93;;;4.10;;
20986;SDS011;10652;50.306;8.570;2022-09-12T21:18:24;5.07;;;4.10;;
20986;SDS011;10652;50.306;8.570;2022-09-12T21:22:26;5.93;;;4.70;;
20986;SDS011;10652;50.306;8.570;2022-09-12T21:26:28;6.18;;;4.40;;
20986;SDS011;10652;50.306;8.570;2022-09-12T21:30:31;5.05;;;4.22;;
20986;SDS011;10652;50.306;8.570;2022-09-12T21:34:33;5.05;;;4.30;;
20986;SDS011;10652;50.306;8.570;2022-09-12T21:38:35;5.55;;;4.35;;
20986;SDS011;10652;50.306;8.570;2022-09-12T21:42:37;5.93;;;4.93;;
20986;SDS011;10652;50.306;8.570;2022-09-12T21:46:39;6.22;;;4.85;;
20986;SDS011;10652;50.306;8.570;2022-09-12T21:50:41;4.70;;;4.20;;
20986;SDS011;10652;50.306;8.570;2022-09-12T21:54:43;7.05;;;4.85;;
20986;SDS011;10652;50.306;8.570;2022-09-12T21:58:45;5.18;;;4.68;;
20986;SDS011;10652;50.306;8.570;2022-09-12T22:02:48;5.75;;;4.53;;
20986;SDS011;10652;50.306;8.570;2022-09-12T22:06:50;6.53;;;4.30;;
20986;SDS011;10652;50.306;8.570;2022-09-12T22:10:55;4.80;;;4.30;;
20986;SDS011;10652;50.306;8.570;2022-09-12T22:14:59;5.80;;;4.65;;
20986;SDS011;10652;50.306;8.570;2022-09-12T22:19:18;4.30;;;3.90;;
20986;SDS011;10652;50.306;8.570;2022-09-12T22:23:20;4.50;;;3.90;;
20986;SDS011;10652;50.306;8.570;2022-09-12T22:27:41;4.55;;;3.90;;
20986;SDS011;10652;50.306;8.570;2022-09-12T22:31:43;5.05;;;3.80;;
20986;SDS011;10652;50.306;8.570;2022-09-12T22:35:45;4.68;;;4.10;;
20986;SDS011;10652;50.306;8.570;2022-09-12T22:39:47;4.30;;;3.90;;
20986;SDS011;10652;50.306;8.570;2022-09-12T22:43:49;5.00;;;4.43;;
20986;SDS011;10652;50.306;8.570;2022-09-12T22:47:51;6.22;;;4.57;;
20986;SDS011;10652;50.306;8.570;2022-09-12T22:51:53;6.47;;;4.75;;
20986;SDS011;10652;50.306;8.570;2022-09-12T22:55:55;4.85;;;4.43;;
20986;SDS011;10652;50.306;8.570;2022-09-12T22:59:57;5.75;;;4.40;;
20986;SDS011;10652;50.306;8.570;2022-09-12T23:04:00;4.82;;;4.38;;
20986;SDS011;10652;50.306;8.570;2022-09-12T23:08:04;5.35;;;4.55;;
20986;SDS011;10652;50.306;8.570;2022-09-12T23:12:06;5.10;;;4.60;;
20986;SDS011;10652;50.306;8.570;2022-09-12T23:16:09;4.78;;;4.38;;
20986;SDS011;10652;50.306;8.570;2022-09-12T23:24:17;4.97;;;4.38;;
20986;SDS011;10652;50.306;8.570;2022-09-12T23:28:19;4.78;;;4.30;;
20986;SDS011;10652;50.306;8.570;2022-09-12T23:32:22;5.03;;;4.53;;
20986;SDS011;10652;50.306;8.570;2022-09-12T23:36:24;5.70;;;4.28;;
20986;SDS011;10652;50.306;8.570;2022-09-12T23:40:28;4.88;;;4.38;;
20986;SDS011;10652;50.306;8.570;2022-09-12T23:44:29;5.55;;;4.50;;
20986;SDS011;10652;50.306;8.570;2022-09-12T23:48:32;6.53;;;4.90;;
20986;SDS011;10652;50.306;8.570;2022-09-12T23:52:34;5.30;;;4.43;;
20986;SDS011;10652;50.306;8.570;2022-09-12T23:56:37;5.55;;;4.47;;
